Time;durP1;ratioP1;P1;durP2;ratioP2;P2;SDS_P1;SDS_P2;PMS_P1;PMS_P2;Temp;Humidity;BMP_temperature;BMP_pressure;BME280_temperature;BME280_humidity;BME280_pressure;Samples;Min_cycle;Max_cycle;Signal;HPM_P1;HPM_P2
2022/09/29 00:02:08;;;;;;;67.85;18.02;;;;;;;10.48;89.26;99772.52;1785137;80;21256;-55
2022/09/29 00:05:15;;;;;;;57.00;17.15;;;;;;;10.45;89.19;99771.54;1785126;78;21212;-55
2022/09/29 00:08:20;;;;;;;42.85;18.05;;;;;;;10.41;89.05;99775.70;1774156;78;21228;-55
2022/09/29 00:11:26;;;;;;;67.42;34.75;;;;;;;10.39;89.09;99779.14;1775260;80;21161;-55
2022/09/29 00:14:32;;;;;;;59.88;30.82;;;;;;;10.43;89.22;99786.46;1768648;79;21257;-56
2022/09/29 00:17:41;;;;;;;36.38;18.57;;;;;;;10.43;89.38;99785.92;1785150;79;21165;-56
2022/09/29 00:20:48;;;;;;;38.28;18.07;;;;;;;10.45;89.39;99790.69;1784745;80;21169;-56
2022/09/29 00:23:55;;;;;;;36.73;18.15;;;;;;;10.43;89.30;99794.13;1773659;80;21338;-56
2022/09/29 00:27:01;;;;;;;50.15;17.32;;;;;;;10.40;89.19;99783.56;1768261;80;21205;-56
2022/09/29 00:30:05;;;;;;;60.38;17.07;;;;;;;10.42;89.16;99786.97;1768276;79;21205;-55
2022/09/29 00:33:10;;;;;;;42.03;16.27;;;;;;;10.42;89.17;99792.44;1768299;79;21253;-53
2022/09/29 00:36:22;;;;;;;54.67;15.95;;;;;;;10.47;89.30;99809.66;1735333;82;21168;-54
2022/09/29 00:39:30;;;;;;;36.90;14.58;;;;;;;10.50;89.46;99806.03;1767968;79;21232;-54
2022/09/29 00:42:36;;;;;;;46.48;13.62;;;;;;;10.53;89.61;99804.28;1736678;80;21180;-54
2022/09/29 00:45:42;;;;;;;58.15;13.55;;;;;;;10.56;89.71;99809.37;1769486;81;21213;-55
2022/09/29 00:48:49;;;;;;;60.43;14.00;;;;;;;10.58;89.80;99808.67;1768723;79;21232;-55
2022/09/29 00:52:05;;;;;;;53.73;12.30;;;;;;;10.61;89.77;99815.64;1753290;80;21168;-55
2022/09/29 00:55:13;;;;;;;57.85;12.88;;;;;;;10.63;89.82;99816.81;1732609;83;21212;-54
2022/09/29 00:58:41;;;;;;;63.30;13.20;;;;;;;10.63;89.84;99820.92;1742467;80;21292;-56
2022/09/29 01:01:47;;;;;;;73.37;13.25;;;;;;;10.65;89.84;99824.33;1737773;82;21219;-55
2022/09/29 01:04:54;;;;;;;53.63;13.08;;;;;;;10.65;89.84;99827.92;1737536;81;21228;-55
2022/09/29 01:08:01;;;;;;;52.10;13.38;;;;;;;10.66;89.84;99824.64;1737926;81;21184;-54
2022/09/29 01:11:07;;;;;;;38.38;12.60;;;;;;;10.66;89.84;99834.22;1739813;82;21200;-55
2022/09/29 01:14:14;;;;;;;51.98;13.05;;;;;;;10.66;89.83;99836.95;1737738;81;21189;-55
2022/09/29 01:17:20;;;;;;;43.83;12.07;;;;;;;10.64;89.68;99833.59;1737547;82;21168;-55
2022/09/29 01:20:27;;;;;;;55.03;13.48;;;;;;;10.60;89.54;99834.48;1739502;81;21204;-55
2022/09/29 01:24:13;;;;;;;48.80;13.35;;;;;;;10.62;89.58;99842.50;1703201;83;21212;-55
2022/09/29 01:27:48;;;;;;;57.20;12.23;;;;;;;10.64;89.66;99841.80;1752348;81;21213;-55
2022/09/29 01:31:02;;;;;;;40.88;13.35;;;;;;;10.64;89.67;99845.91;1770509;80;21317;-55
2022/09/29 01:34:28;;;;;;;62.33;13.20;;;;;;;10.64;89.61;99852.75;1732290;79;21208;-55
2022/09/29 01:37:52;;;;;;;64.15;13.75;;;;;;;10.65;89.58;99846.22;1806552;78;21248;-55
2022/09/29 01:41:16;;;;;;;62.53;13.50;;;;;;;10.65;89.57;99853.92;1732430;81;21178;-55
2022/09/29 01:44:32;;;;;;;39.65;13.35;;;;;;;10.67;89.61;99842.78;1768424;79;21205;-55
2022/09/29 01:47:49;;;;;;;74.50;15.03;;;;;;;10.68;89.69;99839.86;1768388;81;21529;-55
2022/09/29 01:50:58;;;;;;;54.37;15.97;;;;;;;10.70;89.79;99847.37;1805457;79;21370;-54
2022/09/29 01:54:05;;;;;;;49.60;16.12;;;;;;;10.69;89.74;99851.13;1806428;78;21212;-55
2022/09/29 01:57:29;;;;;;;46.15;15.00;;;;;;;10.68;89.74;99848.06;1806464;79;21193;-55
2022/09/29 02:00:37;;;;;;;60.55;16.02;;;;;;;10.69;89.71;99853.86;1806458;79;21181;-55
2022/09/29 02:03:54;;;;;;;56.42;15.55;;;;;;;10.69;89.62;99862.07;1806333;78;21197;-56
2022/09/29 02:07:11;;;;;;;45.30;15.48;;;;;;;10.70;89.73;99858.31;1763979;80;21154;-55
2022/09/29 02:10:28;;;;;;;73.20;16.62;;;;;;;10.73;89.82;99858.44;1771747;79;21287;-56
2022/09/29 02:13:34;;;;;;;51.20;14.60;;;;;;;10.75;89.83;99856.37;1771477;79;21197;-55
2022/09/29 02:16:44;;;;;;;57.25;16.95;;;;;;;10.76;89.80;99855.33;1763322;80;21193;-55
2022/09/29 02:19:49;;;;;;;141.12;17.37;;;;;;;10.76;89.74;99859.43;1764153;80;21194;-55
2022/09/29 02:22:55;;;;;;;141.47;18.07;;;;;;;10.78;89.83;99869.68;1771881;80;21184;-55
2022/09/29 02:26:01;;;;;;;155.67;15.85;;;;;;;10.79;89.92;99861.78;1771178;80;21509;-56
2022/09/29 02:29:10;;;;;;;144.22;16.37;;;;;;;10.80;89.98;99866.24;1771485;79;21201;-55
2022/09/29 02:32:15;;;;;;;110.85;15.60;;;;;;;10.82;90.01;99872.35;1771770;80;21193;-55
2022/09/29 02:35:21;;;;;;;73.12;15.45;;;;;;;10.80;90.03;99878.02;1772094;79;21220;-55
2022/09/29 02:38:34;;;;;;;69.87;15.88;;;;;;;10.80;90.05;99884.03;1769022;79;21197;-55
2022/09/29 02:41:53;;;;;;;91.70;16.20;;;;;;;10.78;90.00;99905.27;1768179;80;21209;-55
2022/09/29 02:45:30;;;;;;;91.47;15.25;;;;;;;10.78;90.02;99909.37;1768220;79;21217;-56
2022/09/29 02:48:49;;;;;;;68.65;16.10;;;;;;;10.77;90.09;99922.72;1767342;79;21233;-55
2022/09/29 02:52:15;;;;;;;225.78;111.45;;;;;;;10.78;90.21;99927.17;1768457;81;21185;-54
2022/09/29 02:55:39;;;;;;;111.52;21.90;;;;;;;10.79;90.32;99924.75;1756872;80;21217;-56
2022/09/29 02:58:56;;;;;;;107.95;18.55;;;;;;;10.81;90.39;99915.33;1768383;79;21205;-56
2022/09/29 03:02:04;;;;;;;101.90;16.70;;;;;;;10.80;90.26;99916.34;1768053;80;21221;-55
2022/09/29 03:05:12;;;;;;;65.52;15.75;;;;;;;10.79;90.15;99924.25;1768377;79;21205;-55
2022/09/29 03:08:19;;;;;;;136.97;15.60;;;;;;;10.76;89.95;99920.52;1760154;80;21268;-55
2022/09/29 03:11:25;;;;;;;131.97;17.98;;;;;;;10.74;89.81;99919.84;1765186;81;21256;-55
2022/09/29 03:14:31;;;;;;;90.90;16.02;;;;;;;10.72;89.77;99926.02;1719627;83;21269;-55
2022/09/29 03:17:36;;;;;;;96.80;15.58;;;;;;;10.70;89.68;99927.26;1768005;81;21229;-55
2022/09/29 03:20:43;;;;;;;117.67;16.23;;;;;;;10.70;89.61;99936.33;1768644;80;21194;-56
2022/09/29 03:23:48;;;;;;;84.05;16.30;;;;;;;10.71;89.72;99933.05;1752266;81;21542;-56
2022/09/29 03:26:56;;;;;;;62.65;15.32;;;;;;;10.73;89.83;99930.98;1794548;79;21181;-56
2022/09/29 03:30:02;;;;;;;66.57;14.95;;;;;;;10.73;89.79;99928.25;1795108;79;21205;-54
2022/09/29 03:33:10;;;;;;;72.35;15.58;;;;;;;10.71;89.78;99926.21;1773086;79;21178;-53
2022/09/29 03:36:16;;;;;;;83.85;16.07;;;;;;;10.70;89.71;99940.95;1726255;82;21202;-54
2022/09/29 03:39:22;;;;;;;68.85;16.00;;;;;;;10.69;89.76;99941.45;1705296;84;21213;-55
2022/09/29 03:42:29;;;;;;;65.28;16.25;;;;;;;10.69;89.79;99952.95;1739062;82;21358;-54
2022/09/29 03:45:34;;;;;;;54.42;15.75;;;;;;;10.69;89.78;99955.69;1734429;82;21320;-54
2022/09/29 03:48:41;;;;;;;59.50;15.35;;;;;;;10.66;89.73;99955.52;1733783;82;21233;-54
2022/09/29 03:51:48;;;;;;;71.55;15.48;;;;;;;10.65;89.70;99963.92;1736301;82;21188;-55
2022/09/29 03:54:53;;;;;;;111.95;17.20;;;;;;;10.64;89.55;99973.18;1734323;81;21252;-55
2022/09/29 03:57:59;;;;;;;113.50;15.58;;;;;;;10.61;89.53;99977.66;1736146;82;21233;-54
2022/09/29 04:01:06;;;;;;;105.10;15.15;;;;;;;10.61;89.64;99976.30;1734105;82;21177;-55
2022/09/29 04:04:11;;;;;;;76.72;14.38;;;;;;;10.62;89.71;99986.20;1694766;83;21261;-55
2022/09/29 04:07:19;;;;;;;63.10;14.68;;;;;;;10.64;89.75;99986.87;1670731;85;21315;-53
2022/09/29 04:10:25;;;;;;;62.00;15.63;;;;;;;10.65;89.77;99996.77;1733743;83;21181;-53
2022/09/29 04:13:32;;;;;;;75.67;16.37;;;;;;;10.66;89.84;99990.24;1733861;83;21209;-54
2022/09/29 04:16:39;;;;;;;70.15;15.05;;;;;;;10.70;89.98;99995.70;1743491;81;21161;-54
2022/09/29 04:19:45;;;;;;;57.03;17.10;;;;;;;10.73;90.09;100008.50;1736019;82;21201;-53
2022/09/29 04:22:52;;;;;;;50.58;16.55;;;;;;;10.79;90.19;100020.58;1735892;82;21200;-54
2022/09/29 04:26:00;;;;;;;69.90;16.95;;;;;;;10.84;90.30;100016.77;1735943;82;21161;-54
2022/09/29 04:29:06;;;;;;;55.28;16.45;;;;;;;10.88;90.36;100023.05;1767720;81;21201;-54
2022/09/29 04:32:12;;;;;;;41.70;16.42;;;;;;;10.92;90.31;100028.50;1744710;81;21236;-54
2022/09/29 04:35:21;;;;;;;40.25;15.95;;;;;;;10.96;90.31;100035.30;1767774;81;21228;-54
2022/09/29 04:38:29;;;;;;;35.83;16.40;;;;;;;11.03;90.34;100031.29;1760455;79;21193;-55
2022/09/29 04:41:38;;;;;;;51.65;15.78;;;;;;;11.11;90.34;100032.06;1806551;79;21228;-55
2022/09/29 04:44:44;;;;;;;33.63;16.85;;;;;;;11.18;90.33;100032.17;1806105;79;21224;-54
2022/09/29 04:47:51;;;;;;;55.92;16.60;;;;;;;11.25;90.35;100035.33;1774547;81;21248;-54
2022/09/29 04:50:57;;;;;;;41.25;16.60;;;;;;;11.34;90.35;100040.17;1745211;81;21175;-55
2022/09/29 04:54:05;;;;;;;52.40;27.05;;;;;;;11.41;90.32;100032.91;1709661;82;21213;-54
2022/09/29 04:57:10;;;;;;;43.68;18.87;;;;;;;11.47;90.23;100027.52;1737361;82;21197;-56
2022/09/29 05:00:17;;;;;;;44.75;18.92;;;;;;;11.50;90.05;100031.25;1736992;82;21738;-55
2022/09/29 05:03:24;;;;;;;42.30;19.75;;;;;;;11.51;89.86;100033.48;1750415;80;21746;-54
2022/09/29 05:06:31;;;;;;;56.25;23.65;;;;;;;11.52;89.73;100042.02;1781403;79;21232;-54
2022/09/29 05:09:37;;;;;;;46.15;21.02;;;;;;;11.54;89.65;100040.78;1724024;82;21727;-56
2022/09/29 05:12:44;;;;;;;54.45;20.92;;;;;;;11.55;89.63;100039.76;1739075;81;21786;-58
2022/09/29 05:15:51;;;;;;;52.93;21.52;;;;;;;11.61;89.77;100047.22;1752237;81;21224;-54
2022/09/29 05:18:59;;;;;;;53.70;21.02;;;;;;;11.67;89.93;100051.14;1757344;79;21760;-54
2022/09/29 05:22:05;;;;;;;49.98;21.37;;;;;;;11.73;90.05;100050.37;1755259;79;21187;-54
2022/09/29 05:25:10;;;;;;;75.15;31.35;;;;;;;11.77;90.09;100051.67;1714228;82;21257;-53
2022/09/29 05:28:17;;;;;;;52.98;23.50;;;;;;;11.82;90.13;100052.81;1728308;82;21221;-54
2022/09/29 05:31:22;;;;;;;57.58;22.15;;;;;;;11.88;90.22;100053.92;1758808;80;21196;-54
2022/09/29 05:34:31;;;;;;;56.30;23.00;;;;;;;11.94;90.29;100059.48;1766571;81;21220;-54
2022/09/29 05:37:36;;;;;;;52.73;24.02;;;;;;;11.99;90.25;100064.39;1766332;81;21208;-53
2022/09/29 05:40:42;;;;;;;53.15;23.70;;;;;;;12.04;90.28;100061.41;1734617;81;21213;-53
2022/09/29 05:43:49;;;;;;;65.10;25.45;;;;;;;12.10;90.29;100062.52;1727349;82;21369;-53
2022/09/29 05:46:57;;;;;;;56.10;24.77;;;;;;;12.16;90.33;100074.12;1737571;81;21406;-53
2022/09/29 05:50:04;;;;;;;56.05;22.58;;;;;;;12.20;90.38;100072.67;1737175;82;21201;-53
2022/09/29 05:53:11;;;;;;;78.07;41.13;;;;;;;12.27;90.37;100079.09;1745328;81;21201;-54
2022/09/29 05:56:21;;;;;;;79.17;42.13;;;;;;;12.31;90.38;100085.02;1738605;81;22083;-54
2022/09/29 05:59:27;;;;;;;57.80;26.73;;;;;;;12.36;90.44;100082.05;1737690;82;21753;-53
2022/09/29 06:02:34;;;;;;;67.65;40.85;;;;;;;12.43;90.53;100088.44;1749576;80;21208;-54
2022/09/29 06:05:47;;;;;;;60.75;26.55;;;;;;;12.52;90.58;100102.39;1759863;80;21207;-53
2022/09/29 06:08:53;;;;;;;54.77;27.27;;;;;;;12.60;90.50;100097.28;1739167;81;21619;-53
2022/09/29 06:12:00;;;;;;;46.18;25.00;;;;;;;12.68;90.51;100098.02;1737286;82;21300;-54
2022/09/29 06:15:10;;;;;;;48.05;25.35;;;;;;;12.79;90.52;100102.98;1737734;82;21572;-53
2022/09/29 06:18:16;;;;;;;55.00;24.52;;;;;;;12.88;90.51;100101.79;1756395;79;21789;-54
2022/09/29 06:21:26;;;;;;;65.20;27.73;;;;;;;12.95;90.41;100110.09;1765727;79;21309;-55
2022/09/29 06:24:33;;;;;;;54.60;25.45;;;;;;;13.01;90.33;100108.81;1742959;81;21231;-54
2022/09/29 06:27:40;;;;;;;50.20;26.05;;;;;;;13.07;90.29;100114.89;1744344;80;21287;-54
2022/09/29 06:30:46;;;;;;;50.92;26.95;;;;;;;13.12;90.25;100109.65;1735727;82;21341;-54
2022/09/29 06:33:54;;;;;;;58.08;25.48;;;;;;;13.22;90.19;100116.18;1754646;80;21244;-53
2022/09/29 06:40:26;;;;;;;44.33;24.25;;;;;;;13.39;90.25;100115.69;1753985;80;21362;-54
2022/09/29 06:43:33;;;;;;;48.52;26.42;;;;;;;13.46;90.37;100116.56;1766105;80;21807;-55
2022/09/29 06:47:10;;;;;;;50.63;26.97;;;;;;;13.56;90.39;100131.33;1736752;82;21252;-58
2022/09/29 06:54:48;;;;;;;52.20;26.42;;;;;;;13.73;90.36;100120.33;1752726;80;21221;-54
2022/09/29 06:58:23;;;;;;;49.45;26.97;;;;;;;13.83;90.39;100132.34;1756922;79;21722;-54
2022/09/29 07:02:19;;;;;;;49.93;26.23;;;;;;;13.92;90.43;100139.41;1744248;81;21261;-57
2022/09/29 07:05:38;;;;;;;49.85;25.95;;;;;;;14.12;90.27;100125.20;1864077;76;22291;-56
2022/09/29 07:08:52;;;;;;;54.33;30.92;;;;;;;14.13;90.23;100132.43;1805749;76;21209;-55
2022/09/29 07:12:02;;;;;;;44.08;25.65;;;;;;;14.21;90.13;100123.45;1776178;81;21220;-55
2022/09/29 07:15:30;;;;;;;46.73;27.05;;;;;;;14.29;90.08;100125.20;1778050;79;21299;-54
2022/09/29 07:19:11;;;;;;;50.03;26.85;;;;;;;14.37;90.14;100127.25;1796427;77;21398;-55
2022/09/29 07:22:18;;;;;;;44.03;26.62;;;;;;;14.52;90.28;100128.47;1753069;81;21157;-54
2022/09/29 07:25:33;;;;;;;50.25;27.65;;;;;;;14.62;90.21;100132.52;1803273;79;21490;-56
2022/09/29 07:28:41;;;;;;;47.25;25.82;;;;;;;14.64;89.96;100129.55;1804557;79;21227;-54
2022/09/29 07:31:58;;;;;;;47.98;28.17;;;;;;;14.72;90.06;100139.00;1792618;79;21192;-55
2022/09/29 07:35:42;;;;;;;45.73;26.23;;;;;;;14.79;90.04;100134.38;1773706;79;21226;-54
2022/09/29 07:38:51;;;;;;;48.63;27.82;;;;;;;14.88;90.03;100145.51;1769570;79;21273;-54
2022/09/29 07:41:57;;;;;;;52.23;28.90;;;;;;;14.93;89.96;100151.25;1765961;80;21182;-54
2022/09/29 07:45:04;;;;;;;47.85;29.72;;;;;;;14.97;89.94;100154.75;1758855;81;21229;-54
2022/09/29 07:48:11;;;;;;;56.90;30.48;;;;;;;14.98;89.81;100163.33;1749452;81;21197;-55
2022/09/29 07:51:20;;;;;;;52.03;28.60;;;;;;;14.98;89.79;100168.84;1775605;79;21172;-55
2022/09/29 07:54:26;;;;;;;46.37;26.17;;;;;;;15.01;89.81;100162.91;1758774;79;21204;-55
2022/09/29 07:57:32;;;;;;;49.00;28.55;;;;;;;15.05;89.84;100163.34;1779098;79;21243;-54
2022/09/29 08:00:39;;;;;;;47.67;26.05;;;;;;;15.04;89.75;100163.03;1800605;79;21232;-55
2022/09/29 08:03:48;;;;;;;43.92;26.80;;;;;;;15.07;89.83;100173.64;1809591;79;21209;-55
2022/09/29 08:06:55;;;;;;;45.65;26.68;;;;;;;15.08;89.90;100172.56;1744896;81;21241;-55
2022/09/29 08:09:58;;;;;;;44.60;26.85;;;;;;;15.09;89.81;100181.70;1734022;82;21229;-55
2022/09/29 08:12:55;;;;;;;48.68;28.45;;;;;;;15.10;89.77;100174.59;1737690;82;21242;-55
2022/09/29 08:16:07;;;;;;;46.37;27.30;;;;;;;15.10;89.75;100179.25;1732710;82;21718;-55
2022/09/29 08:19:14;;;;;;;47.58;26.27;;;;;;;15.10;89.80;100175.12;1713834;82;21345;-55
2022/09/29 08:22:23;;;;;;;39.80;26.10;;;;;;;15.13;89.80;100179.69;1734107;82;21213;-55
2022/09/29 08:25:29;;;;;;;41.90;26.37;;;;;;;15.13;89.88;100178.31;1740245;81;21193;-55
2022/09/29 08:28:39;;;;;;;40.45;25.90;;;;;;;15.16;89.99;100186.16;1726142;82;21279;-55
2022/09/29 08:31:47;;;;;;;42.83;28.83;;;;;;;15.19;90.06;100184.36;1771197;81;21192;-54
2022/09/29 08:34:52;;;;;;;39.15;25.85;;;;;;;15.22;90.15;100192.23;1735056;81;21211;-55
2022/09/29 08:38:00;;;;;;;38.25;26.17;;;;;;;15.27;90.20;100200.70;1735964;81;21189;-55
2022/09/29 08:41:10;;;;;;;38.95;25.17;;;;;;;15.30;90.29;100199.45;1715810;82;21203;-55
2022/09/29 08:44:31;;;;;;;39.50;24.65;;;;;;;15.36;90.36;100202.22;1732824;82;21349;-54
2022/09/29 08:47:50;;;;;;;37.30;23.62;;;;;;;15.40;90.38;100209.03;1749130;81;21199;-54
2022/09/29 08:51:04;;;;;;;35.45;22.77;;;;;;;15.42;90.33;100209.67;1771345;80;21758;-54
2022/09/29 08:54:24;;;;;;;34.48;23.20;;;;;;;15.43;90.23;100214.13;1760342;80;21224;-54
2022/09/29 08:57:33;;;;;;;35.40;23.15;;;;;;;15.45;90.24;100217.53;1765239;80;21702;-54
2022/09/29 09:01:01;;;;;;;35.08;22.70;;;;;;;15.49;90.30;100220.17;1753015;80;21236;-56
2022/09/29 09:04:42;;;;;;;38.60;24.02;;;;;;;15.50;90.28;100219.65;1760542;81;21241;-54
2022/09/29 09:08:09;;;;;;;35.03;22.00;;;;;;;15.52;90.33;100218.91;1794496;79;21161;-54
2022/09/29 09:11:41;;;;;;;38.63;23.50;;;;;;;15.52;90.18;100224.44;1785247;79;21182;-54
2022/09/29 09:15:05;;;;;;;36.42;23.87;;;;;;;15.51;90.16;100223.57;1781649;79;21264;-54
2022/09/29 09:18:41;;;;;;;35.90;23.15;;;;;;;15.51;90.09;100222.19;1776230;79;21184;-53
2022/09/29 09:21:53;;;;;;;36.10;22.40;;;;;;;15.51;90.06;100225.47;1770377;79;21197;-53
2022/09/29 09:25:09;;;;;;;37.23;21.73;;;;;;;15.51;90.16;100226.33;1737616;82;21726;-53
2022/09/29 09:28:35;;;;;;;39.25;23.07;;;;;;;15.53;90.28;100228.36;1759330;80;21200;-54
2022/09/29 09:31:53;;;;;;;34.80;22.40;;;;;;;15.56;90.37;100229.31;1802863;79;21682;-54
2022/09/29 09:35:32;;;;;;;35.48;21.82;;;;;;;15.57;90.31;100226.86;1729014;80;21224;-54
2022/09/29 09:38:59;;;;;;;34.80;22.10;;;;;;;15.58;90.29;100235.47;1801076;79;21285;-54
2022/09/29 09:42:06;;;;;;;37.98;22.77;;;;;;;15.58;90.26;100236.85;1804404;79;21733;-54
2022/09/29 09:45:35;;;;;;;35.92;22.93;;;;;;;15.57;90.28;100240.66;1805048;79;21769;-54
2022/09/29 09:48:54;;;;;;;37.13;22.80;;;;;;;15.59;90.35;100241.30;1802219;79;21291;-54
2022/09/29 09:52:33;;;;;;;37.88;23.70;;;;;;;15.64;90.46;100243.42;1782482;79;21189;-54
2022/09/29 09:55:40;;;;;;;39.42;24.52;;;;;;;15.77;90.71;100241.53;1794888;79;21198;-55
2022/09/29 09:59:24;;;;;;;42.03;28.50;;;;;;;16.02;90.94;100245.84;1780763;79;21189;-54
2022/09/29 10:02:29;;;;;;;33.58;23.25;;;;;;;16.25;91.06;100242.11;1775722;79;21870;-55
2022/09/29 10:05:46;;;;;;;32.70;21.90;;;;;;;16.53;91.13;100237.69;1777260;79;21276;-55
2022/09/29 10:08:54;;;;;;;31.42;20.20;;;;;;;16.81;91.23;100239.63;1794661;79;21180;-55
2022/09/29 10:12:04;;;;;;;29.20;20.48;;;;;;;17.04;91.14;100238.02;1766837;80;21766;-52
2022/09/29 10:15:30;;;;;;;33.45;22.40;;;;;;;17.16;90.95;100245.05;1799142;79;22007;-52
2022/09/29 10:18:53;;;;;;;29.75;19.62;;;;;;;17.26;90.77;100245.43;1773960;79;21303;-53
2022/09/29 10:22:00;;;;;;;28.45;20.43;;;;;;;17.45;90.70;100240.33;1801163;79;21216;-53
2022/09/29 10:25:21;;;;;;;28.12;19.40;;;;;;;17.66;90.71;100245.51;1776452;79;21195;-54
2022/09/29 10:28:30;;;;;;;34.33;25.65;;;;;;;17.79;90.67;100239.31;1773588;79;21240;-53
2022/09/29 10:32:08;;;;;;;23.52;16.82;;;;;;;17.93;90.46;100235.34;1769322;80;21746;-54
2022/09/29 10:35:28;;;;;;;19.60;14.73;;;;;;;18.01;90.10;100235.62;1741553;82;21271;-52
2022/09/29 10:38:37;;;;;;;23.85;15.70;;;;;;;18.12;90.03;100234.02;1742683;81;21177;-53
2022/09/29 10:41:56;;;;;;;19.27;14.95;;;;;;;18.23;89.93;100235.50;1722188;82;21252;-56
2022/09/29 10:45:12;;;;;;;22.65;16.10;;;;;;;18.34;89.85;100244.98;1739559;82;21788;-53
2022/09/29 10:48:21;;;;;;;24.07;16.23;;;;;;;18.37;89.62;100237.58;1732879;82;21922;-54
2022/09/29 10:51:30;;;;;;;26.95;17.15;;;;;;;18.32;89.33;100245.20;1744651;81;21225;-54
2022/09/29 10:54:38;;;;;;;18.45;14.58;;;;;;;18.35;89.40;100241.97;1743515;80;21204;-57
2022/09/29 10:57:47;;;;;;;17.48;13.62;;;;;;;18.49;89.45;100236.63;1778081;80;21187;-57
2022/09/29 11:00:56;;;;;;;18.82;14.87;;;;;;;18.53;89.19;100240.64;1781874;80;21196;-56
2022/09/29 11:04:12;;;;;;;22.62;15.30;;;;;;;18.49;89.07;100242.73;1782823;79;21753;-57
2022/09/29 11:07:19;;;;;;;21.50;16.10;;;;;;;18.50;89.17;100235.56;1818302;79;21207;-56
2022/09/29 11:10:43;;;;;;;19.52;15.88;;;;;;;18.60;89.29;100240.01;1817479;79;21356;-55
2022/09/29 11:13:51;;;;;;;25.10;15.68;;;;;;;18.73;89.43;100232.06;1784356;79;21223;-55
2022/09/29 11:17:06;;;;;;;18.55;14.40;;;;;;;18.82;89.29;100237.63;1752036;79;21232;-55
2022/09/29 11:20:19;;;;;;;19.40;14.90;;;;;;;18.84;89.23;100239.08;1743388;82;21232;-55
2022/09/29 11:23:43;;;;;;;21.45;15.20;;;;;;;18.86;89.07;100235.54;1692738;84;21201;-56
2022/09/29 11:27:01;;;;;;;19.82;15.10;;;;;;;18.91;89.17;100234.84;1747934;82;21837;-57
2022/09/29 11:30:25;;;;;;;21.55;14.38;;;;;;;18.96;89.13;100225.28;1748096;82;21240;-56
2022/09/29 11:34:00;;;;;;;16.62;13.80;;;;;;;18.99;89.02;100224.27;1733707;81;21284;-56
2022/09/29 11:37:10;;;;;;;16.27;13.08;;;;;;;18.99;88.97;100218.73;1731431;82;21185;-55
2022/09/29 11:40:31;;;;;;;20.92;13.70;;;;;;;18.99;88.86;100221.50;1707221;83;21263;-55
2022/09/29 11:44:00;;;;;;;22.62;14.10;;;;;;;18.97;88.73;100226.96;1779336;80;21220;-55
2022/09/29 11:47:40;;;;;;;15.25;13.62;;;;;;;18.95;88.66;100231.36;1735888;80;21940;-59
2022/09/29 11:51:06;;;;;;;17.55;13.25;;;;;;;18.97;88.75;100229.73;1737931;81;21201;-54
2022/09/29 11:54:29;;;;;;;16.48;12.73;;;;;;;19.00;88.78;100228.73;1733536;82;21801;-57
2022/09/29 11:57:51;;;;;;;16.12;13.20;;;;;;;19.07;88.88;100218.41;1717286;82;21176;-63
2022/09/29 12:01:19;;;;;;;;;;;;;;;19.13;88.99;100227.17;1763449;79;21745;-57
2022/09/29 12:04:56;;;;;;;20.50;12.05;;;;;;;19.17;88.96;100226.99;1773483;79;20243;-55
2022/09/29 12:08:15;;;;;;;17.45;13.35;;;;;;;19.19;88.85;100232.30;1804663;79;21193;-56
2022/09/29 12:12:01;;;;;;;18.02;12.58;;;;;;;19.20;88.92;100219.58;1797697;79;21188;-56
2022/09/29 12:15:32;;;;;;;15.13;11.75;;;;;;;19.22;88.81;100220.73;1789487;79;21198;-56
2022/09/29 12:18:48;;;;;;;15.00;11.93;;;;;;;19.20;88.68;100223.74;1790729;79;21388;-56
2022/09/29 12:21:57;;;;;;;15.95;12.00;;;;;;;19.22;88.70;100221.59;1787126;79;21231;-57
2022/09/29 12:25:04;;;;;;;16.80;12.75;;;;;;;19.28;88.84;100228.17;1800908;78;21201;-57
2022/09/29 12:28:22;;;;;;;15.00;12.13;;;;;;;19.36;89.00;100213.92;1786916;79;21228;-56
2022/09/29 12:31:37;;;;;;;19.25;12.60;;;;;;;19.47;89.12;100224.78;1764547;80;21224;-56
2022/09/29 12:34:59;;;;;;;17.77;13.28;;;;;;;19.53;89.15;100226.08;1764489;78;21231;-55
2022/09/29 12:38:14;;;;;;;15.43;12.20;;;;;;;19.58;89.08;100224.83;1733002;82;21280;-55
2022/09/29 12:41:27;;;;;;;14.68;11.33;;;;;;;19.58;88.88;100234.55;1720280;81;21261;-54
2022/09/29 12:44:59;;;;;;;18.80;11.22;;;;;;;19.59;88.84;100232.05;1778414;79;21267;-55
2022/09/29 12:48:44;;;;;;;14.78;12.03;;;;;;;19.58;88.76;100230.91;1747269;80;21280;-54
2022/09/29 12:51:57;;;;;;;15.55;12.75;;;;;;;19.55;88.67;100228.05;1783092;79;21200;-54
2022/09/29 12:55:08;;;;;;;14.95;11.48;;;;;;;19.51;88.65;100221.29;1787222;79;21749;-54
2022/09/29 12:58:19;;;;;;;13.83;12.07;;;;;;;19.47;88.48;100226.17;1778810;79;21192;-54
2022/09/29 13:01:39;;;;;;;14.28;11.97;;;;;;;19.43;88.37;100227.71;1786324;79;21180;-55
2022/09/29 13:05:32;;;;;;;17.75;11.30;;;;;;;19.39;88.31;100227.36;1794210;79;21256;-54
2022/09/29 13:09:04;;;;;;;15.50;11.10;;;;;;;19.33;88.28;100231.91;1765994;79;21778;-54
2022/09/29 13:12:46;;;;;;;14.23;11.30;;;;;;;19.25;88.23;100230.83;1789839;79;21178;-54
2022/09/29 13:16:19;;;;;;;16.85;11.63;;;;;;;19.20;88.27;100234.84;1788163;79;21850;-54
2022/09/29 13:20:05;;;;;;;16.93;12.80;;;;;;;19.14;88.32;100233.02;1789544;79;21312;-55
2022/09/29 13:23:38;;;;;;;16.25;12.03;;;;;;;19.09;88.33;100237.03;1763122;79;21194;-54
2022/09/29 13:27:28;;;;;;;15.83;11.55;;;;;;;19.02;88.35;100230.74;1764043;79;21201;-54
2022/09/29 13:30:36;;;;;;;16.37;11.20;;;;;;;18.98;88.45;100235.61;1751513;81;21205;-55
2022/09/29 13:33:42;;;;;;;14.87;11.63;;;;;;;18.94;88.49;100239.91;1776010;79;21205;-54
2022/09/29 13:36:49;;;;;;;15.38;10.85;;;;;;;18.89;88.46;100234.21;1771653;79;21259;-55
2022/09/29 13:40:10;;;;;;;16.10;11.35;;;;;;;18.82;88.47;100237.06;1726546;81;21204;-54
2022/09/29 13:43:20;;;;;;;15.90;10.70;;;;;;;18.78;88.50;100233.08;1786034;79;21184;-55
2022/09/29 13:46:43;;;;;;;15.08;11.80;;;;;;;18.71;88.51;100231.48;1730615;81;21481;-55
2022/09/29 13:49:50;;;;;;;13.85;11.25;;;;;;;18.65;88.54;100231.85;1741673;80;21224;-54
2022/09/29 13:53:01;;;;;;;16.95;11.18;;;;;;;18.57;88.53;100219.68;1771717;79;21674;-54
2022/09/29 13:56:23;;;;;;;13.62;10.75;;;;;;;18.52;88.59;100230.61;1779130;80;21204;-54
2022/09/29 13:59:31;;;;;;;17.07;11.50;;;;;;;18.45;88.64;100222.93;1766193;80;21848;-54
2022/09/29 14:02:52;;;;;;;14.75;11.53;;;;;;;18.37;88.57;100225.97;1744892;81;21225;-54
2022/09/29 14:06:08;;;;;;;16.60;11.35;;;;;;;18.28;88.50;100224.59;1786581;79;21219;-53
2022/09/29 14:09:30;;;;;;;13.38;11.08;;;;;;;18.21;88.48;100225.18;1743492;81;21295;-52
2022/09/29 14:12:32;;;;;;;14.60;11.70;;;;;;;18.14;88.50;100232.70;1738371;81;21710;-52
2022/09/29 14:15:59;;;;;;;15.88;11.88;;;;;;;18.06;88.49;100226.06;1737574;80;21195;-52
2022/09/29 14:19:33;;;;;;;24.63;14.83;;;;;;;18.00;88.51;100233.91;1714593;82;21236;-52
2022/09/29 14:23:21;;;;;;;18.70;13.38;;;;;;;17.93;88.51;100231.75;1754874;81;21402;-56
2022/09/29 14:26:54;;;;;;;18.87;12.53;;;;;;;17.85;88.54;100232.03;1719543;82;21202;-57
2022/09/29 14:30:18;;;;;;;19.98;12.43;;;;;;;17.80;88.65;100236.02;1751335;81;21229;-55
2022/09/29 14:33:44;;;;;;;16.87;12.33;;;;;;;17.74;88.73;100232.21;1779925;80;21235;-55
2022/09/29 14:36:52;;;;;;;15.98;12.33;;;;;;;17.72;88.78;100230.23;1703487;81;21758;-56
2022/09/29 14:43:24;;;;;;;19.80;12.95;;;;;;;17.68;88.83;100231.73;1732469;81;21216;-56
2022/09/29 14:54:29;;;;;;;15.48;11.95;;;;;;;17.61;88.92;100238.41;1766367;80;21777;-56
2022/09/29 14:57:59;;;;;;;21.02;12.70;;;;;;;17.55;88.93;100235.16;1761446;81;22120;-57
2022/09/29 15:01:23;;;;;;;20.32;12.93;;;;;;;17.49;88.92;100236.06;1735143;82;21706;-57
2022/09/29 15:04:29;;;;;;;19.70;13.30;;;;;;;17.41;88.86;100226.61;1763922;80;21224;-58
2022/09/29 15:07:35;;;;;;;16.12;13.20;;;;;;;17.35;88.86;100236.64;1706248;81;21808;-56